sensor_id;sensor_type;location;lat;lon;timestamp;temperature;humidity
25192;DHT22;13143;50.924;5.320;2024-03-23T00:56:20;10.40;99.90
25192;DHT22;13143;50.924;5.320;2024-03-23T00:58:46;10.40;99.90
25192;DHT22;13143;50.924;5.320;2024-03-23T01:01:12;10.40;99.90
25192;DHT22;13143;50.924;5.320;2024-03-23T01:03:38;10.40;99.90
25192;DHT22;13143;50.924;5.320;2024-03-23T01:06:04;10.40;99.90
25192;DHT22;13143;50.924;5.320;2024-03-23T01:08:30;10.40;99.90
25192;DHT22;13143;50.924;5.320;2024-03-23T01:11:00;10.30;99.90
25192;DHT22;13143;50.924;5.320;2024-03-23T01:13:27;10.30;99.90
25192;DHT22;13143;50.924;5.320;2024-03-23T01:15:54;10.30;99.90
25192;DHT22;13143;50.924;5.320;2024-03-23T01:18:21;10.30;99.90
25192;DHT22;13143;50.924;5.320;2024-03-23T01:20:48;10.30;99.90
25192;DHT22;13143;50.924;5.320;2024-03-23T01:23:14;10.30;99.90
25192;DHT22;13143;50.924;5.320;2024-03-23T01:25:40;10.30;99.90
25192;DHT22;13143;50.924;5.320;2024-03-23T01:28:06;10.30;99.90
25192;DHT22;13143;50.924;5.320;2024-03-23T01:30:33;10.30;99.90
25192;DHT22;13143;50.924;5.320;2024-03-23T01:32:59;10.20;99.90
25192;DHT22;13143;50.924;5.320;2024-03-23T01:35:25;10.20;99.90
25192;DHT22;13143;50.924;5.320;2024-03-23T01:37:52;10.20;99.90
25192;DHT22;13143;50.924;5.320;2024-03-23T01:40:18;10.20;99.90
25192;DHT22;13143;50.924;5.320;2024-03-23T01:43:08;10.20;99.90
25192;DHT22;13143;50.924;5.320;2024-03-23T01:45:34;10.20;99.90
25192;DHT22;13143;50.924;5.320;2024-03-23T01:48:01;10.20;99.90
25192;DHT22;13143;50.924;5.320;2024-03-23T01:50:28;10.20;99.90
25192;DHT22;13143;50.924;5.320;2024-03-23T01:52:59;10.20;99.90
25192;DHT22;13143;50.924;5.320;2024-03-23T01:55:25;10.10;99.90
25192;DHT22;13143;50.924;5.320;2024-03-23T01:57:51;10.10;99.90
25192;DHT22;13143;50.924;5.320;2024-03-23T02:00:17;10.10;99.90
25192;DHT22;13143;50.924;5.320;2024-03-23T02:02:47;10.10;99.90
25192;DHT22;13143;50.924;5.320;2024-03-23T02:05:13;10.10;99.90
25192;DHT22;13143;50.924;5.320;2024-03-23T02:07:40;10.10;99.90
25192;DHT22;13143;50.924;5.320;2024-03-23T02:10:07;10.10;99.90
25192;DHT22;13143;50.924;5.320;2024-03-23T02:12:33;10.10;99.90
25192;DHT22;13143;50.924;5.320;2024-03-23T02:15:00;10.10;99.90
25192;DHT22;13143;50.924;5.320;2024-03-23T02:17:26;10.10;99.90
25192;DHT22;13143;50.924;5.320;2024-03-23T02:19:52;10.10;99.90
25192;DHT22;13143;50.924;5.320;2024-03-23T02:22:18;10.10;99.90
25192;DHT22;13143;50.924;5.320;2024-03-23T02:24:44;10.00;99.90
25192;DHT22;13143;50.924;5.320;2024-03-23T02:27:10;10.00;99.90
25192;DHT22;13143;50.924;5.320;2024-03-23T02:29:36;10.00;99.90
25192;DHT22;13143;50.924;5.320;2024-03-23T02:32:02;10.00;99.90
25192;DHT22;13143;50.924;5.320;2024-03-23T02:34:28;10.00;99.90
25192;DHT22;13143;50.924;5.320;2024-03-23T02:36:54;10.00;99.90
25192;DHT22;13143;50.924;5.320;2024-03-23T02:39:19;10.00;99.90
25192;DHT22;13143;50.924;5.320;2024-03-23T02:41:45;10.00;99.90
25192;DHT22;13143;50.924;5.320;2024-03-23T02:44:13;10.00;99.90
25192;DHT22;13143;50.924;5.320;2024-03-23T02:46:39;10.00;99.90
25192;DHT22;13143;50.924;5.320;2024-03-23T02:49:06;10.00;99.90
25192;DHT22;13143;50.924;5.320;2024-03-23T02:51:32;10.00;99.90
25192;DHT22;13143;50.924;5.320;2024-03-23T02:53:58;9.90;99.90
25192;DHT22;13143;50.924;5.320;2024-03-23T02:56:24;9.90;99.90
25192;DHT22;13143;50.924;5.320;2024-03-23T02:58:50;9.90;99.90
25192;DHT22;13143;50.924;5.320;2024-03-23T03:01:15;9.90;99.90
25192;DHT22;13143;50.924;5.320;2024-03-23T03:03:41;9.90;99.90
25192;DHT22;13143;50.924;5.320;2024-03-23T03:06:09;9.90;99.90
25192;DHT22;13143;50.924;5.320;2024-03-23T03:08:35;9.90;99.90
25192;DHT22;13143;50.924;5.320;2024-03-23T03:11:00;9.90;99.90
25192;DHT22;13143;50.924;5.320;2024-03-23T03:13:26;9.90;99.90
25192;DHT22;13143;50.924;5.320;2024-03-23T03:15:52;9.90;99.90
25192;DHT22;13143;50.924;5.320;2024-03-23T03:18:18;9.90;99.90
25192;DHT22;13143;50.924;5.320;2024-03-23T03:20:45;9.80;99.90
25192;DHT22;13143;50.924;5.320;2024-03-23T03:23:11;9.90;99.90
25192;DHT22;13143;50.924;5.320;2024-03-23T03:25:37;9.80;99.90
25192;DHT22;13143;50.924;5.320;2024-03-23T03:28:03;9.80;99.90
25192;DHT22;13143;50.924;5.320;2024-03-23T03:30:29;9.80;99.90
25192;DHT22;13143;50.924;5.320;2024-03-23T03:32:55;9.80;99.90
25192;DHT22;13143;50.924;5.320;2024-03-23T03:35:21;9.80;99.90
25192;DHT22;13143;50.924;5.320;2024-03-23T03:37:47;9.80;99.90
25192;DHT22;13143;50.924;5.320;2024-03-23T03:40:13;9.80;99.90
25192;DHT22;13143;50.924;5.320;2024-03-23T03:42:41;9.80;99.90
25192;DHT22;13143;50.924;5.320;2024-03-23T03:45:07;9.80;99.90
25192;DHT22;13143;50.924;5.320;2024-03-23T03:47:33;9.80;99.90
25192;DHT22;13143;50.924;5.320;2024-03-23T03:49:59;9.80;99.90
25192;DHT22;13143;50.924;5.320;2024-03-23T03:52:25;9.80;99.90
25192;DHT22;13143;50.924;5.320;2024-03-23T03:54:51;9.80;99.90
25192;DHT22;13143;50.924;5.320;2024-03-23T03:57:17;9.80;99.90
25192;DHT22;13143;50.924;5.320;2024-03-23T03:59:44;9.80;99.90
25192;DHT22;13143;50.924;5.320;2024-03-23T04:02:09;9.80;99.90
25192;DHT22;13143;50.924;5.320;2024-03-23T04:04:35;9.80;99.90
25192;DHT22;13143;50.924;5.320;2024-03-23T04:07:02;9.70;99.90
25192;DHT22;13143;50.924;5.320;2024-03-23T04:09:28;9.70;99.90
25192;DHT22;13143;50.924;5.320;2024-03-23T04:11:55;9.70;99.90
25192;DHT22;13143;50.924;5.320;2024-03-23T04:14:21;9.70;99.90
25192;DHT22;13143;50.924;5.320;2024-03-23T04:16:47;9.70;99.90
25192;DHT22;13143;50.924;5.320;2024-03-23T04:19:13;9.70;99.90
25192;DHT22;13143;50.924;5.320;2024-03-23T04:21:41;9.70;99.90
25192;DHT22;13143;50.924;5.320;2024-03-23T04:24:07;9.70;99.90
25192;DHT22;13143;50.924;5.320;2024-03-23T04:26:43;9.70;99.90
25192;DHT22;13143;50.924;5.320;2024-03-23T04:29:09;9.70;99.90
25192;DHT22;13143;50.924;5.320;2024-03-23T04:31:34;9.70;99.90
25192;DHT22;13143;50.924;5.320;2024-03-23T04:34:01;9.70;99.90
25192;DHT22;13143;50.924;5.320;2024-03-23T04:36:27;9.70;99.90
25192;DHT22;13143;50.924;5.320;2024-03-23T04:38:53;9.70;99.90
25192;DHT22;13143;50.924;5.320;2024-03-23T04:41:19;9.60;99.90
25192;DHT22;13143;50.924;5.320;2024-03-23T04:43:45;9.60;99.90
25192;DHT22;13143;50.924;5.320;2024-03-23T04:46:11;9.60;99.90
25192;DHT22;13143;50.924;5.320;2024-03-23T04:48:37;9.60;99.90
25192;DHT22;13143;50.924;5.320;2024-03-23T04:51:03;9.60;99.90
25192;DHT22;13143;50.924;5.320;2024-03-23T04:53:29;9.60;99.90
25192;DHT22;13143;50.924;5.320;2024-03-23T04:55:56;9.60;99.90
25192;DHT22;13143;50.924;5.320;2024-03-23T04:58:22;9.60;99.90
25192;DHT22;13143;50.924;5.320;2024-03-23T05:00:56;9.50;99.90
25192;DHT22;13143;50.924;5.320;2024-03-23T05:03:23;9.50;99.90
25192;DHT22;13143;50.924;5.320;2024-03-23T05:05:49;9.50;99.90
25192;DHT22;13143;50.924;5.320;2024-03-23T05:08:16;9.50;99.90
25192;DHT22;13143;50.924;5.320;2024-03-23T05:10:43;9.50;99.90
25192;DHT22;13143;50.924;5.320;2024-03-23T05:13:09;9.50;99.90
25192;DHT22;13143;50.924;5.320;2024-03-23T05:15:35;9.50;99.90
25192;DHT22;13143;50.924;5.320;2024-03-23T05:18:01;9.50;99.90
25192;DHT22;13143;50.924;5.320;2024-03-23T05:20:27;9.40;99.90
25192;DHT22;13143;50.924;5.320;2024-03-23T05:22:55;9.50;99.90
25192;DHT22;13143;50.924;5.320;2024-03-23T05:25:21;9.40;99.90
25192;DHT22;13143;50.924;5.320;2024-03-23T05:27:47;9.40;99.90
25192;DHT22;13143;50.924;5.320;2024-03-23T05:30:12;9.40;99.90
25192;DHT22;13143;50.924;5.320;2024-03-23T05:32:38;9.40;99.90
25192;DHT22;13143;50.924;5.320;2024-03-23T05:35:07;9.40;99.90
25192;DHT22;13143;50.924;5.320;2024-03-23T05:37:33;9.40;99.90
25192;DHT22;13143;50.924;5.320;2024-03-23T05:40:00;9.40;99.90
25192;DHT22;13143;50.924;5.320;2024-03-23T05:42:26;9.40;99.90
25192;DHT22;13143;50.924;5.320;2024-03-23T05:44:52;9.40;99.90
25192;DHT22;13143;50.924;5.320;2024-03-23T05:47:18;9.40;99.90
25192;DHT22;13143;50.924;5.320;2024-03-23T05:49:45;9.40;99.90
25192;DHT22;13143;50.924;5.320;2024-03-23T05:52:13;9.30;99.90
25192;DHT22;13143;50.924;5.320;2024-03-23T05:54:39;9.30;99.90
25192;DHT22;13143;50.924;5.320;2024-03-23T05:57:05;9.30;99.90
25192;DHT22;13143;50.924;5.320;2024-03-23T05:59:33;9.40;99.90
25192;DHT22;13143;50.924;5.320;2024-03-23T06:01:59;9.30;99.90
25192;DHT22;13143;50.924;5.320;2024-03-23T06:04:25;9.30;99.90
25192;DHT22;13143;50.924;5.320;2024-03-23T06:06:52;9.30;99.90
25192;DHT22;13143;50.924;5.320;2024-03-23T06:09:20;9.30;99.90
25192;DHT22;13143;50.924;5.320;2024-03-23T06:11:46;9.30;99.90
25192;DHT22;13143;50.924;5.320;2024-03-23T06:14:14;9.40;99.90
25192;DHT22;13143;50.924;5.320;2024-03-23T06:16:39;9.30;99.90
25192;DHT22;13143;50.924;5.320;2024-03-23T06:19:06;9.30;99.90
25192;DHT22;13143;50.924;5.320;2024-03-23T06:21:33;9.30;99.90
25192;DHT22;13143;50.924;5.320;2024-03-23T06:23:59;9.30;99.90
25192;DHT22;13143;50.924;5.320;2024-03-23T06:26:25;9.30;99.90
25192;DHT22;13143;50.924;5.320;2024-03-23T06:28:51;9.30;99.90
25192;DHT22;13143;50.924;5.320;2024-03-23T06:31:17;9.30;99.90
25192;DHT22;13143;50.924;5.320;2024-03-23T06:33:43;9.30;99.90
25192;DHT22;13143;50.924;5.320;2024-03-23T06:36:10;9.30;99.90
25192;DHT22;13143;50.924;5.320;2024-03-23T06:38:37;9.30;99.90
25192;DHT22;13143;50.924;5.320;2024-03-23T06:41:06;9.30;99.90
25192;DHT22;13143;50.924;5.320;2024-03-23T06:43:32;9.30;99.90
25192;DHT22;13143;50.924;5.320;2024-03-23T06:45:58;9.30;99.90
25192;DHT22;13143;50.924;5.320;2024-03-23T06:48:24;9.30;99.90
25192;DHT22;13143;50.924;5.320;2024-03-23T06:50:56;9.30;99.90
25192;DHT22;13143;50.924;5.320;2024-03-23T06:53:22;9.30;99.90
25192;DHT22;13143;50.924;5.320;2024-03-23T06:55:52;9.30;99.90
25192;DHT22;13143;50.924;5.320;2024-03-23T06:58:25;9.30;99.90
25192;DHT22;13143;50.924;5.320;2024-03-23T07:00:51;9.30;99.90
25192;DHT22;13143;50.924;5.320;2024-03-23T07:03:17;9.30;99.90
25192;DHT22;13143;50.924;5.320;2024-03-23T07:05:43;9.30;99.90
25192;DHT22;13143;50.924;5.320;2024-03-23T07:08:09;9.30;99.90
25192;DHT22;13143;50.924;5.320;2024-03-23T07:10:35;9.30;99.90
25192;DHT22;13143;50.924;5.320;2024-03-23T07:13:04;9.30;99.90
25192;DHT22;13143;50.924;5.320;2024-03-23T07:15:30;9.30;99.90
25192;DHT22;13143;50.924;5.320;2024-03-23T07:17:56;9.30;99.90
25192;DHT22;13143;50.924;5.320;2024-03-23T07:20:22;9.30;99.90
25192;DHT22;13143;50.924;5.320;2024-03-23T07:22:48;9.30;99.90
25192;DHT22;13143;50.924;5.320;2024-03-23T07:25:14;9.30;99.90
25192;DHT22;13143;50.924;5.320;2024-03-23T07:27:40;9.30;99.90
25192;DHT22;13143;50.924;5.320;2024-03-23T07:30:07;9.40;99.90
25192;DHT22;13143;50.924;5.320;2024-03-23T07:32:35;9.40;99.90
25192;DHT22;13143;50.924;5.320;2024-03-23T07:35:01;9.40;99.90
25192;DHT22;13143;50.924;5.320;2024-03-23T07:37:27;9.40;99.90
25192;DHT22;13143;50.924;5.320;2024-03-23T07:39:53;9.40;99.90
25192;DHT22;13143;50.924;5.320;2024-03-23T07:42:19;9.40;99.90
25192;DHT22;13143;50.924;5.320;2024-03-23T07:44:45;9.40;99.90
25192;DHT22;13143;50.924;5.320;2024-03-23T07:47:12;9.40;99.90
25192;DHT22;13143;50.924;5.320;2024-03-23T07:49:38;9.40;99.90
25192;DHT22;13143;50.924;5.320;2024-03-23T07:52:05;9.40;99.90
25192;DHT22;13143;50.924;5.320;2024-03-23T07:54:31;9.40;99.90
25192;DHT22;13143;50.924;5.320;2024-03-23T07:56:57;9.40;99.90
25192;DHT22;13143;50.924;5.320;2024-03-23T07:59:23;9.40;99.90
25192;DHT22;13143;50.924;5.320;2024-03-23T08:01:49;9.40;99.90
25192;DHT22;13143;50.924;5.320;2024-03-23T08:04:15;9.40;99.90
25192;DHT22;13143;50.924;5.320;2024-03-23T08:06:41;9.40;99.90
25192;DHT22;13143;50.924;5.320;2024-03-23T08:09:07;9.50;99.90
25192;DHT22;13143;50.924;5.320;2024-03-23T08:11:32;9.50;99.90
25192;DHT22;13143;50.924;5.320;2024-03-23T08:14:00;9.40;99.90
25192;DHT22;13143;50.924;5.320;2024-03-23T08:16:27;9.50;99.90
25192;DHT22;13143;50.924;5.320;2024-03-23T08:18:53;9.60;99.90
25192;DHT22;13143;50.924;5.320;2024-03-23T08:21:21;9.50;99.90
25192;DHT22;13143;50.924;5.320;2024-03-23T08:23:47;9.50;99.90
25192;DHT22;13143;50.924;5.320;2024-03-23T08:26:16;9.50;99.90
25192;DHT22;13143;50.924;5.320;2024-03-23T08:28:43;9.50;99.90
25192;DHT22;13143;50.924;5.320;2024-03-23T08:31:13;9.60;99.90
25192;DHT22;13143;50.924;5.320;2024-03-23T08:33:40;9.50;99.90
25192;DHT22;13143;50.924;5.320;2024-03-23T08:36:09;9.60;99.90
25192;DHT22;13143;50.924;5.320;2024-03-23T08:38:38;9.60;99.90
25192;DHT22;13143;50.924;5.320;2024-03-23T08:41:10;9.60;99.90
25192;DHT22;13143;50.924;5.320;2024-03-23T08:46:04;9.60;99.90
25192;DHT22;13143;50.924;5.320;2024-03-23T08:48:31;9.60;99.90
25192;DHT22;13143;50.924;5.320;2024-03-23T08:51:08;9.60;99.90
25192;DHT22;13143;50.924;5.320;2024-03-23T08:53:35;9.60;99.90
25192;DHT22;13143;50.924;5.320;2024-03-23T08:56:02;9.60;99.90
25192;DHT22;13143;50.924;5.320;2024-03-23T08:58:29;9.70;99.90
25192;DHT22;13143;50.924;5.320;2024-03-23T09:00:57;9.70;99.90
25192;DHT22;13143;50.924;5.320;2024-03-23T09:03:26;9.70;99.90
25192;DHT22;13143;50.924;5.320;2024-03-23T09:05:52;9.70;99.90
25192;DHT22;13143;50.924;5.320;2024-03-23T09:08:20;9.70;99.90
25192;DHT22;13143;50.924;5.320;2024-03-23T09:10:47;9.70;99.90
25192;DHT22;13143;50.924;5.320;2024-03-23T09:13:14;9.80;99.90
25192;DHT22;13143;50.924;5.320;2024-03-23T09:15:51;9.70;99.90
25192;DHT22;13143;50.924;5.320;2024-03-23T09:18:17;9.80;99.90
25192;DHT22;13143;50.924;5.320;2024-03-23T09:20:43;9.80;99.90
25192;DHT22;13143;50.924;5.320;2024-03-23T09:23:09;9.80;99.90
25192;DHT22;13143;50.924;5.320;2024-03-23T09:25:39;9.80;99.90
25192;DHT22;13143;50.924;5.320;2024-03-23T09:28:06;9.80;99.90
25192;DHT22;13143;50.924;5.320;2024-03-23T09:30:35;9.90;99.90
25192;DHT22;13143;50.924;5.320;2024-03-23T09:33:02;9.90;99.90
25192;DHT22;13143;50.924;5.320;2024-03-23T09:35:28;9.90;99.90
25192;DHT22;13143;50.924;5.320;2024-03-23T09:37:54;9.90;99.90
25192;DHT22;13143;50.924;5.320;2024-03-23T09:40:20;9.90;99.90
25192;DHT22;13143;50.924;5.320;2024-03-23T09:42:50;9.90;99.90
25192;DHT22;13143;50.924;5.320;2024-03-23T09:45:20;9.90;99.90
25192;DHT22;13143;50.924;5.320;2024-03-23T09:47:47;9.90;99.90
25192;DHT22;13143;50.924;5.320;2024-03-23T09:50:13;9.90;99.90
25192;DHT22;13143;50.924;5.320;2024-03-23T09:52:40;9.90;99.90
25192;DHT22;13143;50.924;5.320;2024-03-23T09:55:08;9.90;99.90
25192;DHT22;13143;50.924;5.320;2024-03-23T09:57:34;9.90;99.90
25192;DHT22;13143;50.924;5.320;2024-03-23T10:00:01;10.00;99.90
25192;DHT22;13143;50.924;5.320;2024-03-23T10:02:28;10.00;99.90
25192;DHT22;13143;50.924;5.320;2024-03-23T10:04:54;10.00;99.90
25192;DHT22;13143;50.924;5.320;2024-03-23T10:07:20;10.00;99.90
25192;DHT22;13143;50.924;5.320;2024-03-23T10:09:47;10.00;99.90
25192;DHT22;13143;50.924;5.320;2024-03-23T10:12:18;10.00;99.90
25192;DHT22;13143;50.924;5.320;2024-03-23T10:14:45;10.00;99.90
25192;DHT22;13143;50.924;5.320;2024-03-23T10:17:22;10.00;99.90
25192;DHT22;13143;50.924;5.320;2024-03-23T10:19:52;10.00;99.90
25192;DHT22;13143;50.924;5.320;2024-03-23T10:22:21;10.00;99.90
25192;DHT22;13143;50.924;5.320;2024-03-23T10:24:48;10.00;99.90
25192;DHT22;13143;50.924;5.320;2024-03-23T10:27:19;10.10;99.90
25192;DHT22;13143;50.924;5.320;2024-03-23T10:29:46;10.00;99.90
25192;DHT22;13143;50.924;5.320;2024-03-23T10:32:14;10.10;99.90
25192;DHT22;13143;50.924;5.320;2024-03-23T10:34:41;10.10;99.90
25192;DHT22;13143;50.924;5.320;2024-03-23T10:37:07;10.10;99.90
25192;DHT22;13143;50.924;5.320;2024-03-23T10:39:35;10.10;99.90
25192;DHT22;13143;50.924;5.320;2024-03-23T10:42:09;10.10;99.90
25192;DHT22;13143;50.924;5.320;2024-03-23T10:44:38;10.10;99.90
25192;DHT22;13143;50.924;5.320;2024-03-23T10:47:05;10.10;99.90
25192;DHT22;13143;50.924;5.320;2024-03-23T10:49:32;10.10;99.90
25192;DHT22;13143;50.924;5.320;2024-03-23T10:52:00;10.10;99.90
25192;DHT22;13143;50.924;5.320;2024-03-23T10:54:27;10.20;99.90
25192;DHT22;13143;50.924;5.320;2024-03-23T10:57:03;10.20;99.90
25192;DHT22;13143;50.924;5.320;2024-03-23T10:59:31;10.20;99.90
25192;DHT22;13143;50.924;5.320;2024-03-23T11:01:59;10.20;99.90
25192;DHT22;13143;50.924;5.320;2024-03-23T11:04:37;10.10;99.90
25192;DHT22;13143;50.924;5.320;2024-03-23T11:09:50;10.10;99.90
25192;DHT22;13143;50.924;5.320;2024-03-23T11:15:01;10.20;99.90
25192;DHT22;13143;50.924;5.320;2024-03-23T11:17:28;10.10;99.90
25192;DHT22;13143;50.924;5.320;2024-03-23T11:20:02;10.10;99.90
25192;DHT22;13143;50.924;5.320;2024-03-23T11:25:30;10.10;99.90
25192;DHT22;13143;50.924;5.320;2024-03-23T11:28:11;10.20;99.90
25192;DHT22;13143;50.924;5.320;2024-03-23T11:30:38;10.10;99.90
25192;DHT22;13143;50.924;5.320;2024-03-23T11:33:04;10.10;99.90
25192;DHT22;13143;50.924;5.320;2024-03-23T11:35:34;10.10;99.90
25192;DHT22;13143;50.924;5.320;2024-03-23T11:38:03;10.10;99.90
25192;DHT22;13143;50.924;5.320;2024-03-23T11:40:29;10.10;99.90
25192;DHT22;13143;50.924;5.320;2024-03-23T11:43:00;10.10;99.90
25192;DHT22;13143;50.924;5.320;2024-03-23T11:45:26;10.10;99.90
25192;DHT22;13143;50.924;5.320;2024-03-23T11:48:12;10.10;99.90
25192;DHT22;13143;50.924;5.320;2024-03-23T11:50:43;10.10;99.90
25192;DHT22;13143;50.924;5.320;2024-03-23T11:55:58;10.20;99.90
25192;DHT22;13143;50.924;5.320;2024-03-23T11:58:26;10.20;99.90
25192;DHT22;13143;50.924;5.320;2024-03-23T12:01:02;10.20;99.90
25192;DHT22;13143;50.924;5.320;2024-03-23T12:03:29;10.10;99.90
25192;DHT22;13143;50.924;5.320;2024-03-23T12:05:57;10.10;99.90
25192;DHT22;13143;50.924;5.320;2024-03-23T12:08:28;10.10;99.90
25192;DHT22;13143;50.924;5.320;2024-03-23T12:11:08;10.10;99.90
25192;DHT22;13143;50.924;5.320;2024-03-23T12:13:35;10.00;99.90
25192;DHT22;13143;50.924;5.320;2024-03-23T12:16:14;10.10;99.90
25192;DHT22;13143;50.924;5.320;2024-03-23T12:18:47;10.00;99.90
25192;DHT22;13143;50.924;5.320;2024-03-23T12:21:13;10.00;99.90
25192;DHT22;13143;50.924;5.320;2024-03-23T12:23:40;10.00;99.90
25192;DHT22;13143;50.924;5.320;2024-03-23T12:26:06;10.00;99.90
25192;DHT22;13143;50.924;5.320;2024-03-23T12:28:32;10.00;99.90
25192;DHT22;13143;50.924;5.320;2024-03-23T12:30:58;10.00;99.90
25192;DHT22;13143;50.924;5.320;2024-03-23T12:33:24;10.00;99.90
25192;DHT22;13143;50.924;5.320;2024-03-23T12:35:51;10.00;99.90
25192;DHT22;13143;50.924;5.320;2024-03-23T12:38:17;10.00;99.90
25192;DHT22;13143;50.924;5.320;2024-03-23T12:40:50;10.00;99.90
25192;DHT22;13143;50.924;5.320;2024-03-23T12:43:16;10.00;99.90
25192;DHT22;13143;50.924;5.320;2024-03-23T12:45:47;10.00;99.90
25192;DHT22;13143;50.924;5.320;2024-03-23T12:48:13;10.00;99.90
25192;DHT22;13143;50.924;5.320;2024-03-23T12:50:38;10.00;99.90
25192;DHT22;13143;50.924;5.320;2024-03-23T12:53:04;10.00;99.90
25192;DHT22;13143;50.924;5.320;2024-03-23T12:55:30;10.10;99.90
25192;DHT22;13143;50.924;5.320;2024-03-23T12:57:56;10.00;99.90
25192;DHT22;13143;50.924;5.320;2024-03-23T13:00:22;10.10;99.90
25192;DHT22;13143;50.924;5.320;2024-03-23T13:02:48;10.10;99.90
25192;DHT22;13143;50.924;5.320;2024-03-23T13:05:14;10.10;99.90
25192;DHT22;13143;50.924;5.320;2024-03-23T13:07:40;10.10;99.90
25192;DHT22;13143;50.924;5.320;2024-03-23T13:10:07;10.20;99.90
25192;DHT22;13143;50.924;5.320;2024-03-23T13:12:33;10.10;99.90
25192;DHT22;13143;50.924;5.320;2024-03-23T13:14:59;10.10;99.90
25192;DHT22;13143;50.924;5.320;2024-03-23T13:17:26;10.10;99.90
25192;DHT22;13143;50.924;5.320;2024-03-23T13:19:55;10.10;99.90
25192;DHT22;13143;50.924;5.320;2024-03-23T13:22:22;10.10;99.90
25192;DHT22;13143;50.924;5.320;2024-03-23T13:24:48;10.10;99.90
25192;DHT22;13143;50.924;5.320;2024-03-23T13:27:14;10.10;99.90
25192;DHT22;13143;50.924;5.320;2024-03-23T13:29:40;10.10;99.90
25192;DHT22;13143;50.924;5.320;2024-03-23T13:32:07;10.10;99.90
25192;DHT22;13143;50.924;5.320;2024-03-23T13:34:33;10.10;99.90
25192;DHT22;13143;50.924;5.320;2024-03-23T13:37:01;10.10;99.90
25192;DHT22;13143;50.924;5.320;2024-03-23T13:39:26;10.10;99.90
25192;DHT22;13143;50.924;5.320;2024-03-23T13:41:55;10.10;99.90
25192;DHT22;13143;50.924;5.320;2024-03-23T13:44:21;10.10;99.90
25192;DHT22;13143;50.924;5.320;2024-03-23T13:46:48;10.10;99.90
25192;DHT22;13143;50.924;5.320;2024-03-23T13:51:52;10.10;99.90
25192;DHT22;13143;50.924;5.320;2024-03-23T13:54:18;10.20;99.90
25192;DHT22;13143;50.924;5.320;2024-03-23T13:56:45;10.20;99.90
25192;DHT22;13143;50.924;5.320;2024-03-23T13:59:10;10.30;99.90
25192;DHT22;13143;50.924;5.320;2024-03-23T14:01:37;10.20;99.90
25192;DHT22;13143;50.924;5.320;2024-03-23T14:04:03;10.20;99.90
25192;DHT22;13143;50.924;5.320;2024-03-23T14:06:29;10.30;99.90
25192;DHT22;13143;50.924;5.320;2024-03-23T14:08:55;10.30;99.90
25192;DHT22;13143;50.924;5.320;2024-03-23T14:11:21;10.30;99.90
25192;DHT22;13143;50.924;5.320;2024-03-23T14:13:47;10.30;99.90
25192;DHT22;13143;50.924;5.320;2024-03-23T14:16:13;10.30;99.90
25192;DHT22;13143;50.924;5.320;2024-03-23T14:18:39;10.30;99.90
25192;DHT22;13143;50.924;5.320;2024-03-23T14:21:05;10.40;99.90
25192;DHT22;13143;50.924;5.320;2024-03-23T14:23:32;10.40;99.90
25192;DHT22;13143;50.924;5.320;2024-03-23T14:25:59;10.40;99.90
25192;DHT22;13143;50.924;5.320;2024-03-23T14:28:25;10.30;99.90
25192;DHT22;13143;50.924;5.320;2024-03-23T14:30:51;10.30;99.90
25192;DHT22;13143;50.924;5.320;2024-03-23T14:33:18;10.30;99.90
25192;DHT22;13143;50.924;5.320;2024-03-23T14:35:52;10.40;99.90
25192;DHT22;13143;50.924;5.320;2024-03-23T14:38:19;10.40;99.90
25192;DHT22;13143;50.924;5.320;2024-03-23T14:40:46;10.30;99.90
25192;DHT22;13143;50.924;5.320;2024-03-23T14:43:12;10.40;99.90
25192;DHT22;13143;50.924;5.320;2024-03-23T14:46:07;10.40;99.90
25192;DHT22;13143;50.924;5.320;2024-03-23T14:48:33;10.40;99.90
25192;DHT22;13143;50.924;5.320;2024-03-23T14:51:00;10.40;99.90
25192;DHT22;13143;50.924;5.320;2024-03-23T14:53:27;10.40;99.90
25192;DHT22;13143;50.924;5.320;2024-03-23T14:55:56;10.40;99.90
25192;DHT22;13143;50.924;5.320;2024-03-23T14:58:22;10.40;99.90
25192;DHT22;13143;50.924;5.320;2024-03-23T15:00:49;10.40;99.90
25192;DHT22;13143;50.924;5.320;2024-03-23T15:03:15;10.40;99.90
25192;DHT22;13143;50.924;5.320;2024-03-23T15:05:41;10.40;99.90
25192;DHT22;13143;50.924;5.320;2024-03-23T15:08:08;10.40;99.90
25192;DHT22;13143;50.924;5.320;2024-03-23T15:10:34;10.50;99.90
25192;DHT22;13143;50.924;5.320;2024-03-23T15:13:01;10.50;99.90
25192;DHT22;13143;50.924;5.320;2024-03-23T15:15:27;10.50;99.90
25192;DHT22;13143;50.924;5.320;2024-03-23T15:17:53;10.50;99.90
25192;DHT22;13143;50.924;5.320;2024-03-23T15:20:19;10.50;99.90
25192;DHT22;13143;50.924;5.320;2024-03-23T15:22:45;10.50;99.90
25192;DHT22;13143;50.924;5.320;2024-03-23T15:25:11;10.50;99.90
25192;DHT22;13143;50.924;5.320;2024-03-23T15:27:38;10.50;99.90
25192;DHT22;13143;50.924;5.320;2024-03-23T15:30:04;10.50;99.90
25192;DHT22;13143;50.924;5.320;2024-03-23T15:32:30;10.50;99.90
25192;DHT22;13143;50.924;5.320;2024-03-23T15:34:56;10.50;99.90
25192;DHT22;13143;50.924;5.320;2024-03-23T15:37:22;10.50;99.90
25192;DHT22;13143;50.924;5.320;2024-03-23T15:39:48;10.50;99.90
25192;DHT22;13143;50.924;5.320;2024-03-23T15:42:14;10.50;99.90
25192;DHT22;13143;50.924;5.320;2024-03-23T15:44:40;10.60;99.90
25192;DHT22;13143;50.924;5.320;2024-03-23T15:47:06;10.50;99.90
25192;DHT22;13143;50.924;5.320;2024-03-23T15:49:32;10.60;99.90
25192;DHT22;13143;50.924;5.320;2024-03-23T15:51:58;10.50;99.90
25192;DHT22;13143;50.924;5.320;2024-03-23T15:54:25;10.50;99.90
25192;DHT22;13143;50.924;5.320;2024-03-23T15:56:51;10.60;99.90
25192;DHT22;13143;50.924;5.320;2024-03-23T15:59:16;10.50;99.90
25192;DHT22;13143;50.924;5.320;2024-03-23T16:01:43;10.60;99.90
25192;DHT22;13143;50.924;5.320;2024-03-23T16:04:09;10.60;99.90
25192;DHT22;13143;50.924;5.320;2024-03-23T16:06:35;10.60;99.90
25192;DHT22;13143;50.924;5.320;2024-03-23T16:09:01;10.60;99.90
25192;DHT22;13143;50.924;5.320;2024-03-23T16:11:27;10.60;99.90
25192;DHT22;13143;50.924;5.320;2024-03-23T16:13:53;10.60;99.90
25192;DHT22;13143;50.924;5.320;2024-03-23T16:16:19;10.60;99.90
25192;DHT22;13143;50.924;5.320;2024-03-23T16:18:48;10.60;99.90
25192;DHT22;13143;50.924;5.320;2024-03-23T16:21:13;10.60;99.90
25192;DHT22;13143;50.924;5.320;2024-03-23T16:23:39;10.50;99.90
25192;DHT22;13143;50.924;5.320;2024-03-23T16:26:10;10.50;99.90
25192;DHT22;13143;50.924;5.320;2024-03-23T16:28:38;10.50;99.90
25192;DHT22;13143;50.924;5.320;2024-03-23T16:31:07;10.50;99.90
25192;DHT22;13143;50.924;5.320;2024-03-23T16:33:35;10.50;99.90
25192;DHT22;13143;50.924;5.320;2024-03-23T16:36:02;10.50;99.90
25192;DHT22;13143;50.924;5.320;2024-03-23T16:38:28;10.50;99.90
25192;DHT22;13143;50.924;5.320;2024-03-23T16:41:00;10.50;99.90
25192;DHT22;13143;50.924;5.320;2024-03-23T16:43:26;10.50;99.90
25192;DHT22;13143;50.924;5.320;2024-03-23T16:48:23;10.50;99.90
25192;DHT22;13143;50.924;5.320;2024-03-23T16:50:50;10.50;99.90